createdAt,value
2023-02-11T00:00:00.253Z,4.38
2023-02-11T00:06:04.779Z,5.05
2023-02-11T00:12:08.463Z,4.53
2023-02-11T00:18:13.376Z,5.15
2023-02-11T00:24:16.876Z,4.32
2023-02-11T00:30:20.374Z,5.35
2023-02-11T00:36:26.451Z,4.55
2023-02-11T00:42:29.838Z,4.90
2023-02-11T00:48:33.388Z,5.03
2023-02-11T00:54:38.153Z,5.43
2023-02-11T01:00:41.605Z,4.80
2023-02-11T01:06:45.010Z,5.72
2023-02-11T01:12:49.759Z,6.40
2023-02-11T01:18:53.210Z,5.63
2023-02-11T01:24:56.606Z,5.78
2023-02-11T01:31:01.942Z,5.53
2023-02-11T01:37:05.414Z,5.53
2023-02-11T01:43:09.017Z,5.68
2023-02-11T01:49:14.966Z,6.25
2023-02-11T01:55:36.184Z,5.80
2023-02-11T02:01:41.146Z,6.13
2023-02-11T02:07:47.957Z,6.60
2023-02-11T02:13:51.593Z,5.63
2023-02-11T02:20:14.691Z,6.47
2023-02-11T02:26:39.927Z,5.43
2023-02-11T02:32:52.248Z,6.10
2023-02-11T02:38:57.686Z,6.60
2023-02-11T02:45:01.277Z,6.30
2023-02-11T02:51:10.987Z,7.03
2023-02-11T02:57:20.737Z,6.00
2023-02-11T03:03:28.573Z,5.93
2023-02-11T03:09:35.855Z,6.85
2023-02-11T03:15:40.861Z,6.15
2023-02-11T03:21:45.009Z,7.03
2023-02-11T03:27:54.171Z,6.22
2023-02-11T03:33:59.178Z,6.53
2023-02-11T03:40:05.735Z,6.75
2023-02-11T03:46:12.740Z,6.05
2023-02-11T03:52:17.632Z,6.53
2023-02-11T03:58:21.043Z,6.47
2023-02-11T04:04:25.745Z,6.97
2023-02-11T04:10:29.188Z,7.18
2023-02-11T04:16:32.608Z,6.45
2023-02-11T04:22:37.923Z,6.80
2023-02-11T04:28:41.337Z,7.32
2023-02-11T04:34:44.743Z,6.80
2023-02-11T04:40:49.600Z,6.88
2023-02-11T04:46:52.968Z,7.00
2023-02-11T04:52:56.679Z,7.28
2023-02-11T04:59:01.418Z,6.93
2023-02-11T05:05:05.298Z,7.22
2023-02-11T05:11:09.845Z,7.22
2023-02-11T05:17:14.683Z,7.03
2023-02-11T05:23:18.081Z,7.20
2023-02-11T05:29:21.454Z,7.05
2023-02-11T05:35:26.583Z,7.57
2023-02-11T05:41:30.207Z,7.50
2023-02-11T05:47:33.613Z,7.93
2023-02-11T05:53:38.366Z,7.85
2023-02-11T05:59:41.858Z,7.72
2023-02-11T06:05:45.751Z,8.50
2023-02-11T06:11:50.737Z,9.25
2023-02-11T06:17:54.135Z,8.63
2023-02-11T06:23:57.821Z,9.05
2023-02-11T06:30:02.580Z,10.20
2023-02-11T06:36:06.540Z,9.98
2023-02-11T06:42:11.582Z,9.50
2023-02-11T06:48:16.342Z,9.95
2023-02-11T06:54:19.747Z,9.55
2023-02-11T07:00:23.409Z,11.23
2023-02-11T07:06:29.012Z,11.20
2023-02-11T07:12:32.485Z,10.50
2023-02-11T07:18:37.134Z,11.57
2023-02-11T07:24:41.961Z,12.00
2023-02-11T07:30:45.586Z,15.65
2023-02-11T07:36:49.137Z,13.65
2023-02-11T07:42:54.169Z,13.40
2023-02-11T07:48:57.565Z,12.80
2023-02-11T07:55:03.191Z,13.30
2023-02-11T08:01:09.892Z,14.05
2023-02-11T08:07:16.270Z,13.73
2023-02-11T08:13:19.725Z,13.48
2023-02-11T08:19:24.495Z,12.43
2023-02-11T08:25:28.203Z,16.08
2023-02-11T08:31:33.322Z,14.43
2023-02-11T08:37:38.265Z,14.68
2023-02-11T08:43:41.735Z,16.00
2023-02-11T08:49:45.123Z,15.27
2023-02-11T08:55:52.428Z,15.70
2023-02-11T09:01:56.342Z,15.15
2023-02-11T09:07:59.737Z,13.88
2023-02-11T09:14:05.263Z,13.32
2023-02-11T09:20:10.849Z,13.18
2023-02-11T09:26:15.472Z,13.30
2023-02-11T09:32:20.679Z,12.90
2023-02-11T09:38:24.449Z,13.95
2023-02-11T09:44:29.744Z,13.35
2023-02-11T09:50:35.886Z,13.55
2023-02-11T09:56:39.266Z,13.68
2023-02-11T10:02:47.685Z,13.82
2023-02-11T10:08:59.086Z,14.35
2023-02-11T10:15:09.277Z,12.90
2023-02-11T10:21:17.942Z,13.90
2023-02-11T10:27:24.004Z,14.25
2023-02-11T10:33:28.774Z,15.50
2023-02-11T10:39:32.349Z,14.43
2023-02-11T10:45:38.941Z,14.75
2023-02-11T10:51:42.358Z,14.68
2023-02-11T10:57:52.486Z,13.35
2023-02-11T11:03:59.961Z,12.95
2023-02-11T11:10:05.093Z,12.68
2023-02-11T11:16:10.134Z,9.73
2023-02-11T11:22:21.718Z,10.80
2023-02-11T11:28:27.396Z,12.25
2023-02-11T11:34:31.875Z,11.82
2023-02-11T11:40:37.331Z,11.15
2023-02-11T11:46:42.952Z,11.80
2023-02-11T11:52:52.552Z,10.52
2023-02-11T11:58:58.304Z,11.90
2023-02-11T12:05:04.156Z,11.50
2023-02-11T12:11:11.940Z,13.93
2023-02-11T12:17:22.126Z,10.85
2023-02-11T12:23:34.359Z,13.45
2023-02-11T12:29:42.269Z,12.80
2023-02-11T12:35:52.192Z,14.07
2023-02-11T12:42:22.345Z,11.45
2023-02-11T12:48:37.173Z,11.57
2023-02-11T12:54:44.851Z,11.88
2023-02-11T13:00:50.603Z,10.40
2023-02-11T13:06:57.618Z,11.63
2023-02-11T13:13:18.707Z,11.70
2023-02-11T13:19:26.654Z,11.80
2023-02-11T13:25:33.008Z,12.00
2023-02-11T13:31:37.851Z,13.88
2023-02-11T13:37:41.548Z,11.93
2023-02-11T13:43:45.682Z,13.73
2023-02-11T13:49:53.400Z,11.73
2023-02-11T13:56:07.865Z,12.20
2023-02-11T14:02:40.722Z,11.45
2023-02-11T14:08:59.111Z,11.27
2023-02-11T14:15:19.391Z,10.05
2023-02-11T14:21:24.833Z,11.05
2023-02-11T14:27:39.068Z,10.05
2023-02-11T14:33:53.297Z,10.77
2023-02-11T14:40:00.200Z,9.93
2023-02-11T14:46:04.670Z,9.20
2023-02-11T14:52:17.584Z,9.57
2023-02-11T14:58:22.141Z,9.55
2023-02-11T15:04:26.663Z,8.70
2023-02-11T15:10:34.554Z,9.52
2023-02-11T15:16:42.160Z,9.82
2023-02-11T15:22:47.517Z,8.98
2023-02-11T15:28:53.370Z,6.95
2023-02-11T15:34:58.482Z,7.85
2023-02-11T15:41:02.756Z,8.10
2023-02-11T15:47:11.629Z,8.60
2023-02-11T15:53:23.964Z,7.43
2023-02-11T15:59:30.645Z,7.65
2023-02-11T16:05:36.617Z,7.28
2023-02-11T16:11:56.220Z,7.38
2023-02-11T16:18:00.048Z,7.28
2023-02-11T16:24:06.554Z,8.90
2023-02-11T16:30:24.870Z,9.63
2023-02-11T16:36:28.513Z,7.85
2023-02-11T16:42:33.288Z,6.97
2023-02-11T16:48:36.705Z,7.32
2023-02-11T16:54:40.784Z,7.82
2023-02-11T17:00:46.279Z,7.90
2023-02-11T17:06:49.883Z,7.65
2023-02-11T17:12:53.643Z,7.95
2023-02-11T17:18:58.402Z,8.70
2023-02-11T17:25:02.385Z,9.63
2023-02-11T17:31:08.932Z,9.52
2023-02-11T17:37:13.694Z,10.00
2023-02-11T17:43:17.154Z,10.10
2023-02-11T17:49:20.647Z,9.98
2023-02-11T17:55:25.471Z,10.73
2023-02-11T18:01:29.501Z,11.35
2023-02-11T18:07:32.988Z,10.95
2023-02-11T18:13:37.758Z,10.98
2023-02-11T18:19:41.504Z,10.90
2023-02-11T18:25:44.996Z,10.82
2023-02-11T18:31:49.791Z,11.40
2023-02-11T18:37:53.546Z,13.48
2023-02-11T18:44:03.038Z,14.50
2023-02-11T18:50:09.517Z,13.77
2023-02-11T18:56:13.936Z,15.38
2023-02-11T19:02:17.531Z,16.63
2023-02-11T19:08:22.401Z,15.43
2023-02-11T19:14:26.765Z,21.60
2023-02-11T19:20:33.355Z,21.40
2023-02-11T19:26:38.696Z,22.77
2023-02-11T19:32:42.129Z,16.80
2023-02-11T19:38:46.047Z,18.13
2023-02-11T19:44:51.127Z,21.42
2023-02-11T19:50:55.032Z,10.13
2023-02-11T19:56:59.136Z,11.98
2023-02-11T20:03:03.913Z,12.32
2023-02-11T20:09:10.094Z,12.30
2023-02-11T20:15:13.551Z,12.55
2023-02-11T20:21:19.259Z,16.42
2023-02-11T20:27:22.723Z,13.32
2023-02-11T20:33:26.176Z,15.65
2023-02-11T20:39:30.927Z,18.65
2023-02-11T20:45:36.755Z,17.38
2023-02-11T20:51:41.074Z,16.75
2023-02-11T20:57:46.584Z,16.92
2023-02-11T21:03:51.763Z,18.27
2023-02-11T21:09:55.176Z,17.90
2023-02-11T21:16:00.006Z,21.58
2023-02-11T21:22:03.577Z,22.63
2023-02-11T21:28:07.103Z,23.13
2023-02-11T21:34:12.065Z,22.25
2023-02-11T21:40:16.010Z,21.55
2023-02-11T21:46:20.168Z,22.42
2023-02-11T21:52:24.932Z,17.45
2023-02-11T21:58:28.449Z,18.00
2023-02-11T22:04:31.944Z,16.58
2023-02-11T22:10:36.786Z,17.05
2023-02-11T22:16:40.812Z,16.80
2023-02-11T22:22:44.485Z,16.67
2023-02-11T22:28:49.278Z,16.70
2023-02-11T22:34:53.506Z,17.25
2023-02-11T22:40:57.257Z,18.08
2023-02-11T22:47:02.739Z,19.08
2023-02-11T22:53:06.165Z,17.30
2023-02-11T22:59:10.411Z,16.63
2023-02-11T23:05:15.598Z,15.07
2023-02-11T23:11:19.764Z,14.13
2023-02-11T23:17:24.581Z,14.23
2023-02-11T23:23:29.354Z,14.75
2023-02-11T23:29:32.868Z,14.13
2023-02-11T23:35:36.476Z,13.88
2023-02-11T23:41:41.293Z,13.00
2023-02-11T23:47:45.125Z,13.25
2023-02-11T23:53:49.679Z,13.07
2023-02-11T23:59:54.483Z,12.95
